Time;durP1;ratioP1;P1;durP2;ratioP2;P2;SDS_P1;SDS_P2;PMS_P1;PMS_P2;Temp;Humidity;BMP_temperature;BMP_pressure;BME280_temperature;BME280_humidity;BME280_pressure;Samples;Min_cycle;Max_cycle;Signal;HPM_P1;HPM_P2
2023/03/20 00:01:51;;;;;;;33.38;21.73;;;;;;;9.90;86.86;101455.66;4972840;28;20750;-66
2023/03/20 00:04:16;;;;;;;40.10;22.23;;;;;;;9.89;87.44;101459.06;4976324;28;20514;-65
2023/03/20 00:06:42;;;;;;;33.33;20.98;;;;;;;9.88;86.45;101457.34;4970515;28;20046;-65
2023/03/20 00:09:08;;;;;;;37.42;22.40;;;;;;;9.89;86.78;101469.41;4976376;28;20069;-65
2023/03/20 00:11:44;;;;;;;37.97;21.77;;;;;;;9.89;86.34;101464.25;4974143;28;20039;-65
2023/03/20 00:14:13;;;;;;;38.88;22.52;;;;;;;9.88;86.73;101469.41;4975746;28;20030;-65
2023/03/20 00:16:41;;;;;;;39.50;22.73;;;;;;;9.90;86.04;101467.69;4968629;28;20050;-65
2023/03/20 00:19:15;;;;;;;42.78;22.67;;;;;;;9.92;86.75;101476.28;4971150;28;20508;-65
2023/03/20 00:21:40;;;;;;;36.53;22.40;;;;;;;9.89;86.71;101477.16;4978468;28;20577;-66
2023/03/20 00:24:06;;;;;;;39.85;22.70;;;;;;;9.89;87.05;101484.03;4978071;28;20050;-65
2023/03/20 00:26:34;;;;;;;40.45;23.85;;;;;;;9.89;86.78;101479.72;4971371;28;20046;-66
2023/03/20 00:29:00;;;;;;;46.42;25.27;;;;;;;9.90;86.83;101480.59;4973284;28;20141;-66
2023/03/20 00:31:30;;;;;;;43.67;25.63;;;;;;;9.90;86.75;101484.06;4971845;28;20128;-67
2023/03/20 00:33:59;;;;;;;37.58;23.73;;;;;;;9.90;86.82;101488.34;4974654;28;20034;-65
2023/03/20 00:36:25;;;;;;;39.92;23.55;;;;;;;9.91;87.21;101487.50;4972874;28;20069;-66
2023/03/20 00:38:50;;;;;;;43.13;24.08;;;;;;;9.90;86.26;101493.50;4978531;28;20539;-65
2023/03/20 00:41:24;;;;;;;42.72;24.42;;;;;;;9.92;86.38;101505.56;4978960;28;20034;-65
2023/03/20 00:43:54;;;;;;;40.55;22.42;;;;;;;9.91;86.37;101490.09;4976032;28;20030;-65
2023/03/20 00:46:20;;;;;;;41.80;22.45;;;;;;;9.89;86.05;101502.09;4977191;28;20038;-65
2023/03/20 00:48:46;;;;;;;38.97;22.65;;;;;;;9.90;85.94;101499.53;4973105;28;20038;-65
2023/03/20 00:51:11;;;;;;;40.85;23.50;;;;;;;9.90;86.02;101498.69;4973850;28;20965;-65
2023/03/20 00:53:37;;;;;;;44.63;23.80;;;;;;;9.89;86.21;101508.13;4975818;28;20085;-65
2023/03/20 00:56:03;;;;;;;37.00;20.63;;;;;;;9.86;85.92;101505.53;4977901;28;20038;-66
2023/03/20 00:58:29;;;;;;;40.55;22.80;;;;;;;9.86;85.92;101509.81;4980521;28;20044;-65
2023/03/20 01:00:55;;;;;;;40.85;22.75;;;;;;;9.84;86.60;101498.63;4974940;28;20046;-65
2023/03/20 01:03:23;;;;;;;41.50;23.35;;;;;;;9.83;85.87;101508.09;4975199;28;20088;-65
2023/03/20 01:05:49;;;;;;;37.55;21.40;;;;;;;9.81;84.79;101503.78;4990186;28;20045;-66
2023/03/20 01:08:23;;;;;;;37.58;21.80;;;;;;;9.80;84.87;101515.81;4980344;28;20083;-72
2023/03/20 01:10:53;;;;;;;40.30;23.48;;;;;;;9.79;84.03;101511.53;4974510;28;20034;-73
2023/03/20 01:13:27;;;;;;;42.05;22.52;;;;;;;9.79;84.30;101521.00;4967849;28;20035;-72
2023/03/20 01:15:54;;;;;;;36.75;21.50;;;;;;;9.79;83.42;101521.00;4970253;28;20042;-72
2023/03/20 01:18:22;;;;;;;36.00;21.73;;;;;;;9.77;83.75;101515.81;4968809;28;20131;-73
2023/03/20 01:20:48;;;;;;;39.33;22.13;;;;;;;9.77;83.58;101518.38;4977367;28;20034;-72
2023/03/20 01:23:14;;;;;;;37.35;22.73;;;;;;;9.77;83.64;101509.75;4971089;28;20061;-73
2023/03/20 01:25:41;;;;;;;34.67;21.55;;;;;;;9.76;83.95;101519.25;4981080;28;20046;-72
2023/03/20 01:28:23;;;;;;;37.05;21.02;;;;;;;9.76;83.19;101508.94;4974120;28;20333;-73
2023/03/20 01:30:49;;;;;;;34.25;20.15;;;;;;;9.74;84.30;101514.91;4972218;28;20046;-72
2023/03/20 01:33:20;;;;;;;36.83;20.48;;;;;;;9.74;83.54;101522.66;4977040;28;20039;-72
2023/03/20 01:35:47;;;;;;;34.47;20.38;;;;;;;9.73;84.12;101519.22;4974551;28;20038;-73
2023/03/20 01:38:19;;;;;;;39.17;20.75;;;;;;;9.73;84.43;101523.53;4975148;28;20038;-72
2023/03/20 01:40:44;;;;;;;34.92;20.02;;;;;;;9.71;84.63;101514.88;4978699;28;20388;-72
2023/03/20 01:43:16;;;;;;;38.95;21.55;;;;;;;9.71;84.69;101512.31;4973116;28;20073;-73
2023/03/20 01:45:53;;;;;;;30.50;18.75;;;;;;;9.71;85.59;101505.44;4974163;28;20039;-73
2023/03/20 01:48:21;;;;;;;35.08;20.80;;;;;;;9.69;84.82;101504.56;4976248;28;20140;-72
2023/03/20 01:50:47;;;;;;;36.92;20.15;;;;;;;9.67;84.89;101501.13;4977195;28;20152;-72
2023/03/20 01:53:21;;;;;;;35.08;21.35;;;;;;;9.69;85.31;101501.97;4968662;28;20030;-73
2023/03/20 01:55:50;;;;;;;35.73;19.67;;;;;;;9.67;85.52;101498.53;4967869;28;21040;-72
2023/03/20 01:58:25;;;;;;;36.83;19.25;;;;;;;9.66;86.27;101496.81;4972828;28;20032;-73
2023/03/20 02:00:50;;;;;;;33.95;19.77;;;;;;;9.65;86.30;101495.06;4970272;28;20574;-72
2023/03/20 02:03:17;;;;;;;34.90;20.40;;;;;;;9.64;86.23;101490.78;4977400;28;20050;-73
2023/03/20 02:05:43;;;;;;;37.13;19.58;;;;;;;9.64;85.65;101485.59;4969968;28;20046;-72
2023/03/20 02:08:23;;;;;;;29.40;17.63;;;;;;;9.64;85.97;101480.44;4968095;28;20118;-72
2023/03/20 02:10:49;;;;;;;37.50;20.45;;;;;;;9.64;85.88;101478.69;4971862;28;20108;-72
2023/03/20 02:13:15;;;;;;;30.20;19.30;;;;;;;9.63;85.38;101484.75;4966488;28;20488;-72
2023/03/20 02:16:10;;;;;;;30.95;19.25;;;;;;;9.62;85.79;101495.03;4973941;28;20058;-72
2023/03/20 02:18:37;;;;;;;36.05;19.60;;;;;;;9.59;85.66;101500.19;4972122;28;20404;-72
2023/03/20 02:21:21;;;;;;;29.52;17.25;;;;;;;9.56;86.49;101498.41;4970062;28;20064;-72
2023/03/20 02:24:12;;;;;;;32.92;18.70;;;;;;;9.54;86.43;101492.38;4970201;28;20045;-72
2023/03/20 02:26:38;;;;;;;31.50;17.10;;;;;;;9.53;86.49;101493.22;4966227;28;20058;-72
2023/03/20 02:29:30;;;;;;;31.00;17.90;;;;;;;9.52;85.95;101490.66;4973467;28;20130;-73
2023/03/20 02:31:58;;;;;;;33.65;18.92;;;;;;;9.51;85.88;101504.41;4971232;28;20038;-72
2023/03/20 02:34:54;;;;;;;30.67;17.52;;;;;;;9.51;85.81;101506.97;4973849;28;20069;-72
2023/03/20 02:37:41;;;;;;;33.70;17.58;;;;;;;9.50;85.52;101500.06;4968569;28;20093;-72
2023/03/20 02:40:22;;;;;;;30.48;16.75;;;;;;;9.48;85.56;101501.78;4970297;28;20954;-72
2023/03/20 02:43:17;;;;;;;29.58;16.58;;;;;;;9.47;85.52;101506.09;4970586;28;20433;-72
2023/03/20 02:45:45;;;;;;;27.83;16.77;;;;;;;9.46;84.54;101503.50;4980808;28;20121;-72
2023/03/20 02:48:35;;;;;;;27.50;16.30;;;;;;;9.43;84.89;101485.41;4969940;28;20528;-73
2023/03/20 02:51:34;;;;;;;26.58;14.70;;;;;;;9.35;85.50;101487.06;4972689;28;20123;-72
2023/03/20 02:54:07;;;;;;;27.00;15.27;;;;;;;9.27;85.10;101492.16;4963272;28;20045;-72
2023/03/20 02:56:48;;;;;;;29.40;15.88;;;;;;;9.22;85.36;101495.56;4973565;28;20042;-72
2023/03/20 02:59:34;;;;;;;26.77;14.80;;;;;;;9.19;85.75;101506.72;4971801;28;20038;-71
2023/03/20 03:02:11;;;;;;;23.67;13.50;;;;;;;9.15;85.00;101484.31;4976606;28;20042;-72
2023/03/20 03:04:54;;;;;;;26.50;14.35;;;;;;;9.06;85.66;101471.34;5003266;28;20039;-72
2023/03/20 03:07:23;;;;;;;24.20;14.23;;;;;;;8.96;85.50;101466.97;4982612;28;20080;-73
2023/03/20 03:09:58;;;;;;;24.63;13.98;;;;;;;8.84;85.95;101479.72;4983068;28;20791;-72
2023/03/20 03:12:27;;;;;;;;;;;;;;;8.75;87.01;101498.56;4981415;28;20161;-72
2023/03/20 03:14:59;;;;;;;23.58;13.48;;;;;;;8.73;87.52;101497.66;4975316;28;19999;-72
2023/03/20 03:17:29;;;;;;;23.45;12.60;;;;;;;8.77;88.09;101498.56;4975938;28;20046;-73
2023/03/20 03:19:59;;;;;;;28.27;14.68;;;;;;;8.84;87.45;101500.34;4978167;28;20065;-72
2023/03/20 03:22:25;;;;;;;26.73;14.57;;;;;;;8.89;87.73;101503.84;4977980;28;20144;-72
2023/03/20 03:24:52;;;;;;;27.33;14.63;;;;;;;8.93;87.22;101503.88;4980001;28;20047;-72
2023/03/20 03:27:21;;;;;;;24.05;13.93;;;;;;;8.98;87.20;101503.94;4979067;28;20034;-72
2023/03/20 03:29:54;;;;;;;25.23;14.50;;;;;;;9.01;87.38;101499.69;4974661;28;20160;-73
2023/03/20 03:32:31;;;;;;;26.90;14.30;;;;;;;9.03;86.62;101495.38;4977604;28;20070;-72
2023/03/20 03:34:59;;;;;;;27.83;13.98;;;;;;;9.04;86.19;101494.53;4976517;28;20026;-72
2023/03/20 03:37:55;;;;;;;24.77;14.18;;;;;;;9.06;86.35;101503.16;4974281;28;20092;-72
2023/03/20 03:40:32;;;;;;;26.20;13.88;;;;;;;9.08;85.85;101505.72;4980891;28;20416;-72
2023/03/20 03:43:07;;;;;;;24.02;13.20;;;;;;;9.09;85.17;101508.34;4972632;28;20039;-72
2023/03/20 03:45:46;;;;;;;25.48;14.32;;;;;;;9.13;84.82;101506.66;4975355;28;20043;-72
2023/03/20 03:48:18;;;;;;;24.42;15.25;;;;;;;9.14;85.60;101501.50;4972855;28;20074;-72
2023/03/20 03:50:49;;;;;;;28.38;14.75;;;;;;;9.14;85.63;101477.41;4976338;28;20046;-73
2023/03/20 03:53:21;;;;;;;28.85;14.15;;;;;;;9.12;85.99;101472.25;4981302;28;20085;-73
2023/03/20 03:55:51;;;;;;;23.65;13.77;;;;;;;9.05;85.83;101479.94;4981326;28;20041;-72
2023/03/20 03:58:28;;;;;;;22.33;12.90;;;;;;;8.94;87.05;101487.56;4976953;28;20042;-72
2023/03/20 04:00:56;;;;;;;25.55;13.75;;;;;;;8.88;87.13;101486.63;4980045;28;20107;-72
2023/03/20 04:03:27;;;;;;;22.45;11.70;;;;;;;8.82;87.69;101497.75;4973251;28;20038;-72
2023/03/20 04:05:55;;;;;;;31.73;14.23;;;;;;;8.79;88.37;101502.88;4976915;28;20038;-72
2023/03/20 04:08:20;;;;;;;26.52;13.55;;;;;;;8.79;88.59;101502.00;4976929;28;20047;-72
2023/03/20 04:10:45;;;;;;;26.30;14.05;;;;;;;8.80;88.94;101503.75;4972390;28;20045;-72
2023/03/20 04:13:11;;;;;;;26.42;14.13;;;;;;;8.79;89.22;101502.88;4968993;28;20034;-72
2023/03/20 04:15:37;;;;;;;25.90;14.32;;;;;;;8.80;89.66;101509.75;4963744;28;20055;-72
2023/03/20 04:18:03;;;;;;;25.38;13.75;;;;;;;8.82;89.08;101525.22;4979859;28;20092;-72
2023/03/20 04:20:28;;;;;;;29.08;15.82;;;;;;;8.84;89.13;101528.72;4991346;28;20057;-72
2023/03/20 04:22:54;;;;;;;27.27;14.20;;;;;;;8.88;89.00;101528.75;4991976;28;20030;-72
2023/03/20 04:25:23;;;;;;;34.08;16.77;;;;;;;8.88;89.23;101518.44;4993070;28;20046;-72
2023/03/20 04:27:49;;;;;;;28.98;15.23;;;;;;;8.90;88.92;101515.88;4992731;28;20037;-72
2023/03/20 04:30:15;;;;;;;29.75;16.05;;;;;;;8.90;89.27;101521.03;4995335;28;20755;-72
2023/03/20 04:32:40;;;;;;;30.55;16.75;;;;;;;8.90;89.14;101521.88;4994864;28;20037;-72
2023/03/20 04:35:06;;;;;;;26.60;15.27;;;;;;;8.87;88.94;101519.28;5005663;28;20828;-72
2023/03/20 04:37:32;;;;;;;30.00;17.05;;;;;;;8.85;88.00;101514.94;4995153;28;20050;-72
2023/03/20 04:39:57;;;;;;;28.98;15.75;;;;;;;8.81;88.11;101515.78;4997395;28;20046;-73
2023/03/20 04:42:22;;;;;;;26.88;15.68;;;;;;;8.76;87.90;101515.72;4988593;28;20089;-72
2023/03/20 04:44:48;;;;;;;29.73;14.90;;;;;;;8.70;88.49;101517.38;4992390;28;20526;-72
2023/03/20 04:47:13;;;;;;;24.50;13.50;;;;;;;8.64;88.71;101517.28;4998918;28;20038;-73
2023/03/20 04:49:39;;;;;;;27.58;14.10;;;;;;;8.58;89.21;101518.97;4992834;28;20042;-72
2023/03/20 04:52:04;;;;;;;30.33;16.08;;;;;;;8.52;89.35;101521.47;4990801;28;20096;-73
2023/03/20 04:54:30;;;;;;;22.88;14.15;;;;;;;8.46;89.86;101511.09;4987472;28;20035;-73
2023/03/20 04:56:55;;;;;;;31.20;16.23;;;;;;;8.41;89.34;101505.03;4998258;28;20140;-72
2023/03/20 04:59:20;;;;;;;29.23;16.48;;;;;;;8.34;89.98;101494.59;4992080;28;20051;-72
2023/03/20 05:01:46;;;;;;;36.15;17.85;;;;;;;8.30;89.77;101490.28;4991326;28;20549;-72
2023/03/20 05:04:11;;;;;;;30.27;15.13;;;;;;;8.25;90.40;101495.34;4994527;28;20038;-72
2023/03/20 05:06:37;;;;;;;26.25;14.65;;;;;;;8.20;90.33;101493.56;4996865;28;20053;-72
2023/03/20 05:09:02;;;;;;;29.25;16.10;;;;;;;8.18;90.65;101493.56;4988453;28;20045;-72
2023/03/20 05:11:29;;;;;;;25.70;15.05;;;;;;;8.18;90.56;101492.69;4997965;28;20065;-72
2023/03/20 05:13:54;;;;;;;29.58;15.65;;;;;;;8.17;90.78;101496.13;4989802;28;20026;-72
2023/03/20 05:16:19;;;;;;;25.00;13.40;;;;;;;8.15;91.03;101497.81;4989662;28;20045;-73
2023/03/20 05:18:45;;;;;;;33.53;15.85;;;;;;;8.13;90.75;101497.78;4989391;28;20052;-72
2023/03/20 05:21:10;;;;;;;25.27;14.38;;;;;;;8.11;91.14;101493.47;4994525;28;21691;-72
2023/03/20 05:23:37;;;;;;;26.10;14.18;;;;;;;8.09;91.25;101485.72;4988430;28;20450;-72
2023/03/20 05:26:03;;;;;;;29.50;15.23;;;;;;;8.07;91.23;101482.25;4988753;28;20087;-72
2023/03/20 05:28:29;;;;;;;24.50;13.90;;;;;;;8.03;91.35;101485.66;4986362;28;20077;-73
2023/03/20 05:30:55;;;;;;;25.73;14.05;;;;;;;8.00;91.70;101488.19;4991644;28;20553;-73
2023/03/20 05:33:20;;;;;;;30.27;15.90;;;;;;;7.96;92.15;101482.13;4988973;28;20034;-72
2023/03/20 05:35:46;;;;;;;29.30;16.27;;;;;;;7.94;91.92;101482.94;4997339;28;20085;-72
2023/03/20 05:38:11;;;;;;;28.17;15.48;;;;;;;7.89;91.94;101482.03;4994262;28;20037;-73
2023/03/20 05:40:37;;;;;;;28.98;15.40;;;;;;;7.82;92.53;101488.78;4992990;28;20031;-71
2023/03/20 05:43:03;;;;;;;29.20;16.20;;;;;;;7.78;92.52;101483.56;4990681;28;20042;-72
2023/03/20 05:45:28;;;;;;;30.60;14.95;;;;;;;7.76;93.36;101480.09;4990603;28;20115;-72
2023/03/20 05:47:53;;;;;;;27.48;15.10;;;;;;;7.72;93.15;101483.47;4988639;28;20042;-72
2023/03/20 05:50:19;;;;;;;28.45;14.98;;;;;;;7.70;93.17;101488.59;4991529;28;20050;-72
2023/03/20 05:52:48;;;;;;;21.88;13.23;;;;;;;7.70;93.17;101483.47;4996398;28;20115;-72
2023/03/20 05:55:14;;;;;;;26.63;14.07;;;;;;;7.72;93.36;101483.47;4993227;28;20062;-72
2023/03/20 05:57:39;;;;;;;26.50;14.93;;;;;;;7.75;93.58;101499.81;4987881;28;20058;-72
2023/03/20 06:00:07;;;;;;;28.05;15.10;;;;;;;7.78;92.97;101497.28;4989438;28;20064;-72
2023/03/20 06:02:32;;;;;;;27.75;14.82;;;;;;;7.83;93.37;101495.66;4989308;28;20168;-72
2023/03/20 06:04:58;;;;;;;23.65;13.52;;;;;;;7.88;93.20;101503.44;4995193;28;20026;-72
2023/03/20 06:07:23;;;;;;;29.48;16.10;;;;;;;7.92;93.08;101510.38;4994007;28;20811;-72
2023/03/20 06:09:49;;;;;;;24.75;13.25;;;;;;;7.98;92.69;101507.91;4991337;28;20044;-72
2023/03/20 06:12:15;;;;;;;26.77;14.60;;;;;;;8.02;92.90;101509.66;4986883;28;20565;-73
2023/03/20 06:14:40;;;;;;;28.60;14.35;;;;;;;8.06;92.79;101511.44;4990605;28;20697;-71
2023/03/20 06:17:05;;;;;;;25.23;13.40;;;;;;;8.11;92.10;101511.47;4989911;28;20041;-72
2023/03/20 06:19:31;;;;;;;20.83;11.77;;;;;;;8.13;92.46;101509.81;4985033;28;20034;-72
2023/03/20 06:21:56;;;;;;;20.30;12.73;;;;;;;8.14;91.65;101511.53;4997852;28;20038;-72
2023/03/20 06:24:22;;;;;;;27.05;15.15;;;;;;;8.14;92.19;101517.53;4993905;28;20058;-73
2023/03/20 06:26:48;;;;;;;24.35;14.07;;;;;;;8.19;91.48;101507.31;4991702;28;20030;-72
2023/03/20 06:29:13;;;;;;;24.58;13.55;;;;;;;8.23;91.92;101514.22;4988989;28;20037;-72
2023/03/20 06:31:39;;;;;;;24.35;13.05;;;;;;;8.29;91.80;101514.28;4997710;28;20088;-73
2023/03/20 06:34:04;;;;;;;25.52;14.57;;;;;;;8.36;91.25;101506.69;4991669;28;20038;-73
2023/03/20 06:36:30;;;;;;;23.17;13.05;;;;;;;8.46;90.77;101503.34;4986974;28;20046;-73
2023/03/20 06:38:56;;;;;;;27.25;14.85;;;;;;;8.53;90.07;101496.56;4989475;28;20479;-65
2023/03/20 06:41:21;;;;;;;23.00;13.75;;;;;;;8.60;90.24;101502.66;4995358;28;20048;-66
2023/03/20 06:43:47;;;;;;;25.17;14.20;;;;;;;8.67;89.45;101500.16;4989406;28;20036;-65
2023/03/20 06:46:12;;;;;;;27.42;15.15;;;;;;;8.76;88.70;101510.56;4994205;28;20578;-65
2023/03/20 06:48:37;;;;;;;25.60;15.15;;;;;;;8.87;88.39;101513.28;4991106;28;20049;-66
2023/03/20 06:51:03;;;;;;;24.33;14.20;;;;;;;8.97;87.68;101515.09;4992613;28;20038;-66
2023/03/20 06:53:28;;;;;;;25.98;15.82;;;;;;;9.05;86.26;101514.31;4998979;28;20041;-65
2023/03/20 06:55:54;;;;;;;22.52;14.05;;;;;;;9.18;87.15;101515.28;5002395;28;20026;-65
2023/03/20 06:58:19;;;;;;;23.00;13.23;;;;;;;9.29;86.15;101511.09;4990438;28;20713;-66
2023/03/20 07:00:45;;;;;;;24.27;14.20;;;;;;;9.37;86.11;101508.59;4998152;28;20108;-65
2023/03/20 07:03:11;;;;;;;24.55;12.57;;;;;;;9.41;85.97;101505.16;4990457;28;20038;-65
2023/03/20 07:05:37;;;;;;;24.60;14.75;;;;;;;9.41;85.16;101510.31;4995048;28;20133;-66
2023/03/20 07:08:04;;;;;;;24.67;13.75;;;;;;;9.35;84.22;101507.69;4993147;28;20038;-66
2023/03/20 07:10:30;;;;;;;21.98;13.30;;;;;;;9.37;84.87;101516.31;4978952;28;20038;-66
2023/03/20 07:12:56;;;;;;;23.52;13.18;;;;;;;9.36;84.59;101515.47;4988930;28;20038;-66
2023/03/20 07:15:22;;;;;;;22.00;13.70;;;;;;;9.40;83.89;101516.34;4987361;28;20054;-65
2023/03/20 07:17:47;;;;;;;23.73;14.15;;;;;;;9.45;84.11;101525.84;4990215;28;20156;-65
2023/03/20 07:20:13;;;;;;;26.02;14.40;;;;;;;9.47;83.26;101526.72;4993466;28;20030;-66
2023/03/20 07:22:40;;;;;;;27.52;15.18;;;;;;;9.53;82.63;101528.47;4986972;28;20454;-66
2023/03/20 07:25:07;;;;;;;29.08;15.50;;;;;;;9.67;82.03;101532.09;4988875;28;20039;-66
2023/03/20 07:27:32;;;;;;;22.35;14.02;;;;;;;9.79;80.73;101539.94;4983183;28;20741;-65
2023/03/20 07:29:57;;;;;;;23.75;12.43;;;;;;;9.87;79.26;101534.81;4993387;28;20129;-66
2023/03/20 07:32:23;;;;;;;22.10;12.82;;;;;;;10.00;78.87;101539.22;4989996;28;20038;-66
2023/03/20 07:34:49;;;;;;;22.52;13.52;;;;;;;10.12;79.02;101550.47;4997324;28;20040;-66
2023/03/20 07:37:14;;;;;;;19.35;11.15;;;;;;;10.15;77.86;101542.72;4996879;28;20042;-65
2023/03/20 07:39:40;;;;;;;19.88;11.80;;;;;;;10.24;77.16;101541.91;5001314;28;20084;-66
2023/03/20 07:42:05;;;;;;;22.40;12.10;;;;;;;10.25;78.20;101559.16;4996710;28;20034;-66
2023/03/20 07:44:31;;;;;;;20.20;11.75;;;;;;;10.34;77.25;101548.88;4992304;28;20587;-65
2023/03/20 07:46:56;;;;;;;18.38;11.57;;;;;;;10.30;76.09;101551.44;4996448;28;20049;-66
2023/03/20 07:49:22;;;;;;;20.65;11.32;;;;;;;10.22;75.43;101549.66;4989482;28;20030;-65
2023/03/20 07:51:48;;;;;;;16.85;10.20;;;;;;;10.18;76.99;101560.81;4992345;28;20391;-66
2023/03/20 07:54:14;;;;;;;17.50;11.55;;;;;;;10.19;76.37;101561.69;4996634;28;21151;-65
2023/03/20 07:56:40;;;;;;;19.33;9.45;;;;;;;10.20;76.03;101556.56;4995032;28;20862;-64
2023/03/20 07:59:06;;;;;;;15.77;9.27;;;;;;;10.24;76.33;101552.25;4996191;28;20033;-66
2023/03/20 08:01:31;;;;;;;16.27;9.88;;;;;;;10.21;75.79;101555.69;4993456;28;20042;-65
2023/03/20 08:03:57;;;;;;;17.25;8.93;;;;;;;10.19;75.08;101546.19;4991488;28;20522;-65
2023/03/20 08:06:22;;;;;;;15.98;9.50;;;;;;;10.16;75.53;101561.69;4988652;28;20042;-67
2023/03/20 08:08:50;;;;;;;14.57;9.73;;;;;;;10.17;74.82;101559.13;5000396;28;20033;-67
2023/03/20 08:11:16;;;;;;;14.30;8.35;;;;;;;10.13;74.68;101559.94;4995117;28;20057;-67
2023/03/20 08:13:41;;;;;;;15.30;9.30;;;;;;;10.18;75.07;101576.31;4993877;28;20125;-67
2023/03/20 08:16:07;;;;;;;14.05;9.02;;;;;;;10.22;74.90;101567.75;4997093;28;20160;-67
2023/03/20 08:18:33;;;;;;;15.80;9.10;;;;;;;10.36;75.42;101590.19;4998927;28;20038;-67
2023/03/20 08:20:58;;;;;;;13.23;8.52;;;;;;;10.45;74.72;101569.56;5007692;28;20048;-67
2023/03/20 08:23:23;;;;;;;12.70;8.85;;;;;;;10.49;74.61;101572.19;4993644;28;20717;-68
2023/03/20 08:25:51;;;;;;;12.75;7.95;;;;;;;10.58;74.44;101573.97;4995248;28;20040;-68
2023/03/20 08:28:17;;;;;;;13.85;8.40;;;;;;;10.66;73.69;101567.09;4982253;28;20034;-68
2023/03/20 08:30:43;;;;;;;15.88;8.35;;;;;;;10.77;74.17;101573.19;4988289;28;20042;-68
2023/03/20 08:33:09;;;;;;;12.80;7.93;;;;;;;10.87;73.36;101567.19;4990500;28;20125;-68
2023/03/20 08:35:35;;;;;;;12.52;8.82;;;;;;;10.77;73.01;101566.28;4993752;28;20037;-68
2023/03/20 08:38:00;;;;;;;13.10;7.53;;;;;;;10.77;71.84;101555.94;4994862;28;20052;-68
2023/03/20 08:40:26;;;;;;;10.73;6.50;;;;;;;10.86;71.73;101564.59;5003140;28;20739;-68
2023/03/20 08:42:52;;;;;;;12.05;6.72;;;;;;;10.87;72.04;101559.41;4985098;28;20040;-68
2023/03/20 08:45:17;;;;;;;10.27;6.55;;;;;;;11.00;71.85;101557.72;4992996;28;20042;-68
2023/03/20 08:47:47;;;;;;;10.73;5.75;;;;;;;10.92;69.12;101502.53;4993654;28;20571;-68
2023/03/20 08:50:12;;;;;;;9.10;5.97;;;;;;;10.96;69.33;101523.22;4990311;28;20037;-68
2023/03/20 08:52:42;;;;;;;12.00;6.07;;;;;;;11.01;68.97;101516.34;4997366;28;20041;-68
2023/03/20 08:55:11;;;;;;;11.50;5.38;;;;;;;11.13;68.17;101487.03;4986384;28;20080;-67
2023/03/20 08:57:37;;;;;;;11.20;6.55;;;;;;;11.25;67.55;101474.09;4989161;28;20073;-67
2023/03/20 09:00:05;;;;;;;8.63;5.57;;;;;;;11.41;68.04;101496.53;4995930;28;20042;-65
2023/03/20 09:02:30;;;;;;;11.88;5.00;;;;;;;11.57;66.92;101467.25;5005229;28;20129;-65
2023/03/20 09:04:56;;;;;;;10.48;5.68;;;;;;;11.63;66.54;101456.88;5000977;28;20029;-66
2023/03/20 09:07:21;;;;;;;8.40;5.35;;;;;;;11.70;65.08;101447.34;4998481;28;20044;-66
2023/03/20 09:09:47;;;;;;;8.27;5.03;;;;;;;11.67;64.09;101429.22;4996670;28;20080;-66
2023/03/20 09:12:12;;;;;;;8.98;5.05;;;;;;;11.59;63.71;101428.38;5010183;28;20057;-68
2023/03/20 09:14:37;;;;;;;9.75;5.10;;;;;;;11.48;63.22;101418.06;4992438;28;20509;-68
2023/03/20 09:17:03;;;;;;;9.98;5.57;;;;;;;11.42;63.79;101436.16;4993833;28;20082;-68
2023/03/20 09:19:28;;;;;;;8.38;5.68;;;;;;;11.45;63.70;101438.78;4998012;28;20036;-66
2023/03/20 09:21:54;;;;;;;7.63;5.38;;;;;;;11.63;64.00;101450.81;4998225;28;20041;-66
2023/03/20 09:24:19;;;;;;;9.68;5.80;;;;;;;11.80;64.55;101456.81;4993574;28;20496;-66
2023/03/20 09:26:45;;;;;;;10.00;5.32;;;;;;;11.63;63.19;101425.78;4995795;28;20041;-66
2023/03/20 09:29:10;;;;;;;9.30;5.38;;;;;;;11.60;62.64;101412.00;4990484;28;20099;-66
2023/03/20 09:31:35;;;;;;;8.65;5.07;;;;;;;11.69;63.60;101440.47;4990712;28;20479;-66
2023/03/20 09:34:01;;;;;;;12.43;6.05;;;;;;;11.80;63.42;101443.88;4995392;28;20033;-66
2023/03/20 09:36:26;;;;;;;8.88;4.63;;;;;;;12.00;63.33;101442.06;4982649;28;20096;-66
2023/03/20 09:38:51;;;;;;;7.80;5.10;;;;;;;12.14;62.53;101423.91;5009165;28;20096;-65
2023/03/20 09:41:21;;;;;;;11.88;5.53;;;;;;;12.12;61.38;101410.94;4986458;28;20360;-67
2023/03/20 09:43:53;;;;;;;9.68;6.00;;;;;;;12.00;62.51;101442.06;4988761;28;20029;-67
2023/03/20 09:46:37;;;;;;;11.32;4.78;;;;;;;12.03;61.30;101410.09;5010003;28;20029;-67
2023/03/20 09:49:17;;;;;;;9.25;4.72;;;;;;;12.06;61.91;101439.47;5001007;28;20526;-67
2023/03/20 09:51:50;;;;;;;9.88;4.93;;;;;;;12.24;62.03;101430.75;4992180;28;20068;-69
2023/03/20 09:54:24;;;;;;;10.75;5.10;;;;;;;12.30;61.20;101418.63;4997630;28;20068;-69
2023/03/20 09:56:51;;;;;;;11.98;5.13;;;;;;;12.35;60.61;101403.03;4986448;28;20081;-69
2023/03/20 09:59:19;;;;;;;8.13;4.35;;;;;;;12.41;61.01;101409.06;4993596;28;20035;-68
2023/03/20 10:01:54;;;;;;;8.35;4.28;;;;;;;12.26;59.73;101383.22;4996235;28;20029;-70
2023/03/20 10:04:19;;;;;;;9.07;5.13;;;;;;;12.22;60.58;101399.69;4993172;28;20025;-70
2023/03/20 10:06:45;;;;;;;8.25;5.18;;;;;;;12.28;61.11;101419.50;4992278;28;20049;-70
2023/03/20 10:09:20;;;;;;;9.90;5.93;;;;;;;12.27;60.43;101399.63;4992829;28;20048;-72
2023/03/20 10:12:15;;;;;;;7.75;4.88;;;;;;;12.29;61.25;101419.50;4999883;28;20050;-70
2023/03/20 10:14:59;;;;;;;7.35;4.95;;;;;;;12.36;61.10;101404.78;4994104;28;20145;-71
2023/03/20 10:17:57;;;;;;;10.10;5.05;;;;;;;12.36;60.17;101390.09;4986914;28;20158;-71
2023/03/20 10:20:39;;;;;;;8.07;5.15;;;;;;;12.50;59.74;101383.94;4994866;28;20120;-70
2023/03/20 10:23:06;;;;;;;8.93;5.00;;;;;;;12.27;59.90;101395.31;4996131;28;20038;-70
2023/03/20 10:25:36;;;;;;;11.43;5.65;;;;;;;12.22;60.43;101416.94;5004657;28;20123;-71
2023/03/20 10:28:30;;;;;;;8.73;4.85;;;;;;;12.45;60.73;101420.28;4986364;28;20049;-69
2023/03/20 10:31:26;;;;;;;10.52;5.10;;;;;;;12.57;58.87;101372.66;4992356;28;20042;-71
2023/03/20 10:34:29;;;;;;;11.27;5.55;;;;;;;12.63;59.17;101373.50;4995653;28;20030;-70
2023/03/20 10:36:54;;;;;;;9.45;5.55;;;;;;;12.63;59.44;101380.41;4997840;28;20053;-71
2023/03/20 10:39:45;;;;;;;9.13;5.10;;;;;;;12.68;58.58;101373.44;4994643;28;20454;-71
2023/03/20 10:42:18;;;;;;;8.88;5.13;;;;;;;12.70;58.27;101375.16;4989802;28;20647;-71
2023/03/20 10:45:16;;;;;;;10.88;5.38;;;;;;;12.75;58.66;101381.19;4997361;28;20033;-72
2023/03/20 10:47:44;;;;;;;8.10;5.13;;;;;;;12.76;58.21;101372.50;4991028;28;20042;-72
2023/03/20 10:50:17;;;;;;;10.60;5.78;;;;;;;12.80;58.60;101382.00;4990540;28;20876;-72
2023/03/20 10:52:44;;;;;;;7.95;5.25;;;;;;;12.84;59.33;101407.06;4996703;28;20048;-71
2023/03/20 10:55:38;;;;;;;7.97;5.55;;;;;;;12.76;56.13;101330.16;4991608;28;20030;-71
2023/03/20 10:58:18;;;;;;;8.70;5.40;;;;;;;12.51;57.14;101346.78;4999205;28;20068;-72
2023/03/20 11:00:44;;;;;;;8.45;5.03;;;;;;;12.46;58.34;101377.94;4993938;28;20080;-73
2023/03/20 11:03:20;;;;;;;11.23;5.88;;;;;;;12.26;58.56;101382.34;4988658;28;20062;-65
2023/03/20 11:05:51;;;;;;;9.13;5.88;;;;;;;12.00;59.31;101394.56;4990550;28;20029;-64
2023/03/20 11:08:23;;;;;;;10.05;5.72;;;;;;;11.87;60.77;101424.88;4994032;28;20058;-64
2023/03/20 11:10:58;;;;;;;11.43;5.80;;;;;;;11.86;61.35;101443.84;4993336;28;20048;-64
2023/03/20 11:13:41;;;;;;;10.70;6.88;;;;;;;11.68;61.32;101436.13;4995164;28;20041;-65
2023/03/20 11:16:17;;;;;;;7.43;5.60;;;;;;;11.57;61.44;101438.75;4991626;28;20722;-64
2023/03/20 11:18:42;;;;;;;11.80;6.05;;;;;;;11.52;60.93;101422.34;4991795;28;20145;-66
2023/03/20 11:21:17;;;;;;;11.52;7.07;;;;;;;11.60;60.46;101415.44;4996797;28;20094;-65
2023/03/20 11:23:42;;;;;;;11.13;7.05;;;;;;;11.79;60.77;101419.69;4991467;28;20038;-64
2023/03/20 11:26:31;;;;;;;10.63;6.47;;;;;;;12.10;60.46;101409.22;5000264;28;20502;-64
2023/03/20 11:28:58;;;;;;;9.38;5.95;;;;;;;12.13;59.58;101391.94;4997788;28;20053;-65
2023/03/20 11:31:35;;;;;;;15.07;6.25;;;;;;;12.21;59.57;101387.56;4996325;28;20144;-65